DLH8CK EDDF-ENGM
Flight info
| Callsign | DLH8CK |
|---|---|
| Flight time | 1h 38m |
| Altitude | 37000 |
| Route | MARUN2D MARUN Y150 TOLGI DCT ALASA DCT INVOL DCT SABAK/N0446F380 L997 LUNIP |
| Aircraft | A320/M-SDE3FGHIRWY/LB1 |
Departure
| Time | 2026-05-08 06:03 |
|---|---|
| Airport | Frankfurt Main Airport (EDDF) |
Arrival
| Time | 2026-05-08 07:42 |
|---|---|
| Airport | Oslo-Gardermoen International Airport (ENGM) |
| Time | Latitude | Longitude | Altitude | Speed | Heading |
|---|---|---|---|---|---|
| 2026-05-08 05:32 | 50.04390 | 8.56168 | 356 ft | 0 kts | 155° |
| 2026-05-08 05:53 | 50.04399 | 8.56162 | 364 ft | 3 kts | 153° |
| 2026-05-08 05:53 | 50.04420 | 8.56145 | 360 ft | 3 kts | 156° |
| 2026-05-08 05:54 | 50.04441 | 8.56135 | 363 ft | 3 kts | 197° |
| 2026-05-08 05:54 | 50.04457 | 8.56151 | 357 ft | 3 kts | 223° |
| 2026-05-08 05:54 | 50.04463 | 8.56163 | 364 ft | 0 kts | 250° |
| 2026-05-08 05:54 | 50.04457 | 8.56135 | 363 ft | 3 kts | 249° |
| 2026-05-08 05:55 | 50.04453 | 8.56118 | 361 ft | 0 kts | 249° |
| 2026-05-08 05:57 | 50.04445 | 8.56083 | 359 ft | 6 kts | 249° |
| 2026-05-08 05:58 | 50.04406 | 8.56022 | 359 ft | 9 kts | 188° |
| 2026-05-08 05:58 | 50.04352 | 8.56050 | 357 ft | 8 kts | 158° |
| 2026-05-08 05:58 | 50.04304 | 8.56090 | 360 ft | 8 kts | 135° |
| 2026-05-08 05:58 | 50.04282 | 8.56192 | 361 ft | 11 kts | 115° |
| 2026-05-08 05:59 | 50.04222 | 8.56250 | 356 ft | 10 kts | 159° |
| 2026-05-08 05:59 | 50.04160 | 8.56284 | 360 ft | 9 kts | 169° |
| 2026-05-08 05:59 | 50.04112 | 8.56217 | 359 ft | 12 kts | 249° |
| 2026-05-08 05:59 | 50.04079 | 8.56077 | 359 ft | 16 kts | 250° |
| 2026-05-08 06:00 | 50.04035 | 8.55894 | 353 ft | 20 kts | 249° |
| 2026-05-08 06:00 | 50.03983 | 8.55675 | 350 ft | 23 kts | 250° |
| 2026-05-08 06:00 | 50.03926 | 8.55440 | 352 ft | 24 kts | 249° |
| 2026-05-08 06:00 | 50.03867 | 8.55191 | 350 ft | 25 kts | 250° |
| 2026-05-08 06:01 | 50.03804 | 8.54926 | 355 ft | 27 kts | 250° |
| 2026-05-08 06:01 | 50.03736 | 8.54643 | 355 ft | 29 kts | 250° |
| 2026-05-08 06:01 | 50.03680 | 8.54408 | 345 ft | 11 kts | 250° |
| 2026-05-08 06:01 | 50.03647 | 8.54309 | 349 ft | 10 kts | 216° |
| 2026-05-08 06:02 | 50.03585 | 8.54323 | 352 ft | 9 kts | 157° |
| 2026-05-08 06:02 | 50.03517 | 8.54363 | 350 ft | 10 kts | 160° |
| 2026-05-08 06:02 | 50.03493 | 8.54433 | 347 ft | 8 kts | 69° |
| 2026-05-08 06:02 | 50.03515 | 8.54522 | 348 ft | 17 kts | 69° |
| 2026-05-08 06:03 | 50.03644 | 8.55059 | 348 ft | 88 kts | 69° |
| 2026-05-08 06:03 | 50.03926 | 8.56240 | 360 ft | 142 kts | 69° |
| 2026-05-08 06:03 | 50.04291 | 8.57818 | 754 ft | 157 kts | 68° |
| 2026-05-08 06:03 | 50.04658 | 8.59395 | 1475 ft | 157 kts | 70° |
| 2026-05-08 06:04 | 50.05035 | 8.61056 | 1987 ft | 172 kts | 70° |
| 2026-05-08 06:04 | 50.05456 | 8.62930 | 2319 ft | 195 kts | 70° |
| 2026-05-08 06:04 | 50.05929 | 8.65029 | 2656 ft | 214 kts | 70° |
| 2026-05-08 06:04 | 50.06436 | 8.67295 | 3281 ft | 225 kts | 70° |
| 2026-05-08 06:05 | 50.06993 | 8.69591 | 4053 ft | 229 kts | 61° |
| 2026-05-08 06:05 | 50.08032 | 8.71483 | 4763 ft | 236 kts | 35° |
| 2026-05-08 06:05 | 50.09527 | 8.72652 | 5422 ft | 245 kts | 22° |
| 2026-05-08 06:05 | 50.11140 | 8.73728 | 5987 ft | 262 kts | 22° |
| 2026-05-08 06:06 | 50.12855 | 8.74862 | 6722 ft | 271 kts | 22° |
| 2026-05-08 06:06 | 50.14605 | 8.76028 | 7522 ft | 276 kts | 22° |
| 2026-05-08 06:06 | 50.16363 | 8.77211 | 8327 ft | 281 kts | 22° |
| 2026-05-08 06:06 | 50.18179 | 8.78441 | 9146 ft | 286 kts | 22° |
| 2026-05-08 06:07 | 50.20022 | 8.79693 | 9972 ft | 291 kts | 22° |
| 2026-05-08 06:07 | 50.21898 | 8.80965 | 10694 ft | 298 kts | 22° |
| 2026-05-08 06:07 | 50.23876 | 8.82307 | 10974 ft | 321 kts | 22° |
| 2026-05-08 06:07 | 50.26019 | 8.83661 | 11241 ft | 341 kts | 16° |
| 2026-05-08 06:08 | 50.28329 | 8.84739 | 11831 ft | 349 kts | 15° |
| 2026-05-08 06:08 | 50.30674 | 8.85866 | 12553 ft | 354 kts | 17° |
| 2026-05-08 06:08 | 50.33027 | 8.87053 | 13285 ft | 358 kts | 17° |
| 2026-05-08 06:08 | 50.35381 | 8.88276 | 13991 ft | 361 kts | 17° |
| 2026-05-08 06:09 | 50.37786 | 8.89536 | 14626 ft | 365 kts | 17° |
| 2026-05-08 06:09 | 50.40214 | 8.90804 | 15267 ft | 369 kts | 17° |
| 2026-05-08 06:09 | 50.42661 | 8.92073 | 15907 ft | 372 kts | 17° |
| 2026-05-08 06:09 | 50.45110 | 8.93334 | 16537 ft | 375 kts | 17° |
| 2026-05-08 06:10 | 50.47602 | 8.94619 | 17165 ft | 379 kts | 17° |
| 2026-05-08 06:10 | 50.50126 | 8.95926 | 17798 ft | 382 kts | 17° |
| 2026-05-08 06:10 | 50.52664 | 8.97240 | 18392 ft | 386 kts | 16° |
| 2026-05-08 06:10 | 50.55229 | 8.98566 | 18932 ft | 389 kts | 16° |
| 2026-05-08 06:11 | 50.57784 | 8.99891 | 19447 ft | 392 kts | 16° |
| 2026-05-08 06:11 | 50.60383 | 9.01247 | 19969 ft | 395 kts | 17° |
| 2026-05-08 06:11 | 50.63002 | 9.02614 | 20481 ft | 398 kts | 16° |
| 2026-05-08 06:11 | 50.65640 | 9.03990 | 20987 ft | 401 kts | 16° |
| 2026-05-08 06:12 | 50.68304 | 9.05381 | 21498 ft | 404 kts | 16° |
| 2026-05-08 06:12 | 50.70983 | 9.06784 | 22001 ft | 407 kts | 16° |
| 2026-05-08 06:12 | 50.73681 | 9.08197 | 22481 ft | 410 kts | 16° |
| 2026-05-08 06:12 | 50.76403 | 9.09622 | 22953 ft | 413 kts | 16° |
| 2026-05-08 06:13 | 50.79139 | 9.11054 | 23426 ft | 416 kts | 16° |
| 2026-05-08 06:13 | 50.81859 | 9.12479 | 23861 ft | 418 kts | 16° |
| 2026-05-08 06:13 | 50.84636 | 9.13937 | 24266 ft | 421 kts | 16° |
| 2026-05-08 06:13 | 50.87423 | 9.15403 | 24652 ft | 423 kts | 16° |
| 2026-05-08 06:14 | 50.90234 | 9.16887 | 25037 ft | 425 kts | 17° |
| 2026-05-08 06:14 | 50.93043 | 9.18386 | 25423 ft | 428 kts | 17° |
| 2026-05-08 06:14 | 50.95875 | 9.19910 | 25799 ft | 430 kts | 17° |
| 2026-05-08 06:14 | 50.98689 | 9.21429 | 26176 ft | 432 kts | 17° |
| 2026-05-08 06:15 | 51.01545 | 9.22973 | 26549 ft | 434 kts | 17° |
| 2026-05-08 06:15 | 51.04419 | 9.24525 | 26909 ft | 436 kts | 17° |
| 2026-05-08 06:15 | 51.07301 | 9.26081 | 27270 ft | 439 kts | 17° |
| 2026-05-08 06:15 | 51.10204 | 9.27645 | 27623 ft | 441 kts | 15° |
| 2026-05-08 06:16 | 51.13177 | 9.28869 | 27966 ft | 441 kts | 10° |
| 2026-05-08 06:16 | 51.16150 | 9.29896 | 28307 ft | 443 kts | 10° |
| 2026-05-08 06:16 | 51.19176 | 9.30940 | 28641 ft | 445 kts | 9° |
| 2026-05-08 06:16 | 51.22216 | 9.31991 | 28986 ft | 447 kts | 9° |
| 2026-05-08 06:17 | 51.28336 | 9.34116 | 29618 ft | 451 kts | 9° |
| 2026-05-08 06:17 | 51.31379 | 9.35171 | 29912 ft | 453 kts | 9° |
| 2026-05-08 06:17 | 51.34476 | 9.36243 | 30210 ft | 455 kts | 9° |
| 2026-05-08 06:18 | 51.37585 | 9.37317 | 30462 ft | 457 kts | 9° |
| 2026-05-08 06:18 | 51.40710 | 9.38400 | 30704 ft | 459 kts | 9° |
| 2026-05-08 06:18 | 51.42777 | 9.39123 | 30918 ft | 459 kts | 9° |
| 2026-05-08 06:18 | 51.45894 | 9.40219 | 31287 ft | 458 kts | 9° |
| 2026-05-08 06:19 | 51.50018 | 9.41673 | 31764 ft | 456 kts | 9° |
| 2026-05-08 06:19 | 51.52122 | 9.42415 | 32005 ft | 456 kts | 9° |
| 2026-05-08 06:19 | 51.55214 | 9.43503 | 32365 ft | 455 kts | 9° |
| 2026-05-08 06:19 | 51.58270 | 9.44573 | 32716 ft | 454 kts | 9° |
| 2026-05-08 06:20 | 51.61366 | 9.45659 | 33070 ft | 454 kts | 9° |
| 2026-05-08 06:20 | 51.64449 | 9.46744 | 33428 ft | 453 kts | 9° |
| 2026-05-08 06:20 | 51.67532 | 9.47830 | 33800 ft | 452 kts | 9° |
| 2026-05-08 06:20 | 51.70604 | 9.48914 | 34169 ft | 451 kts | 9° |
| 2026-05-08 06:21 | 51.73678 | 9.50002 | 34463 ft | 450 kts | 9° |
| 2026-05-08 06:21 | 51.76741 | 9.51092 | 34717 ft | 450 kts | 9° |
| 2026-05-08 06:21 | 51.79759 | 9.52170 | 34953 ft | 451 kts | 9° |
| 2026-05-08 06:21 | 51.82836 | 9.53198 | 35187 ft | 450 kts | 6° |
| 2026-05-08 06:22 | 51.85958 | 9.53709 | 35401 ft | 449 kts | 2° |
| 2026-05-08 06:22 | 51.89082 | 9.54122 | 35617 ft | 450 kts | 2° |
| 2026-05-08 06:22 | 51.92217 | 9.54543 | 35841 ft | 451 kts | 2° |
| 2026-05-08 06:22 | 51.95317 | 9.54964 | 36052 ft | 451 kts | 2° |
| 2026-05-08 06:23 | 51.98448 | 9.55388 | 36252 ft | 452 kts | 2° |
| 2026-05-08 06:23 | 52.01589 | 9.55812 | 36459 ft | 453 kts | 2° |
| 2026-05-08 06:23 | 52.04737 | 9.56238 | 36662 ft | 453 kts | 2° |
| 2026-05-08 06:23 | 52.07889 | 9.56667 | 36850 ft | 454 kts | 2° |
| 2026-05-08 06:24 | 52.10999 | 9.57090 | 37046 ft | 454 kts | 2° |
| 2026-05-08 06:24 | 52.14156 | 9.57516 | 37156 ft | 456 kts | 2° |
| 2026-05-08 06:24 | 52.20495 | 9.58376 | 37162 ft | 457 kts | 2° |
| 2026-05-08 06:25 | 52.26832 | 9.59244 | 37165 ft | 457 kts | 2° |
| 2026-05-08 06:25 | 52.33169 | 9.60110 | 37166 ft | 457 kts | 2° |
| 2026-05-08 06:26 | 52.39506 | 9.60984 | 37169 ft | 457 kts | 2° |
| 2026-05-08 06:26 | 52.45843 | 9.61861 | 37163 ft | 457 kts | 2° |
| 2026-05-08 06:27 | 52.52176 | 9.62742 | 37160 ft | 457 kts | 2° |
| 2026-05-08 06:27 | 52.58476 | 9.63625 | 37162 ft | 457 kts | 2° |
| 2026-05-08 06:28 | 52.64819 | 9.64500 | 37172 ft | 457 kts | 3° |
| 2026-05-08 06:28 | 52.71160 | 9.65380 | 37170 ft | 457 kts | 3° |
| 2026-05-08 06:29 | 52.77465 | 9.66256 | 37178 ft | 457 kts | 3° |
| 2026-05-08 06:29 | 52.83806 | 9.67150 | 37178 ft | 457 kts | 3° |
| 2026-05-08 06:30 | 52.90147 | 9.68039 | 37186 ft | 457 kts | 3° |
| 2026-05-08 06:30 | 52.96455 | 9.68931 | 37184 ft | 457 kts | 3° |
| 2026-05-08 06:31 | 53.02795 | 9.69831 | 37181 ft | 457 kts | 3° |
| 2026-05-08 06:31 | 53.09138 | 9.70733 | 37182 ft | 457 kts | 3° |
| 2026-05-08 06:32 | 53.15482 | 9.71630 | 37184 ft | 457 kts | 3° |
| 2026-05-08 06:32 | 53.21818 | 9.72530 | 37184 ft | 457 kts | 3° |
| 2026-05-08 06:33 | 53.28158 | 9.73443 | 37183 ft | 457 kts | 3° |
| 2026-05-08 06:33 | 53.34457 | 9.74358 | 37190 ft | 457 kts | 3° |
| 2026-05-08 06:34 | 53.40795 | 9.75267 | 37188 ft | 457 kts | 3° |
| 2026-05-08 06:34 | 53.47137 | 9.76181 | 37210 ft | 457 kts | 3° |
| 2026-05-08 06:35 | 53.53490 | 9.77105 | 37207 ft | 457 kts | 3° |
| 2026-05-08 06:35 | 53.59785 | 9.78016 | 37218 ft | 457 kts | 3° |
| 2026-05-08 06:36 | 53.66127 | 9.78924 | 37215 ft | 457 kts | 3° |
| 2026-05-08 06:36 | 53.72519 | 9.79867 | 37204 ft | 458 kts | 4° |
| 2026-05-08 06:37 | 53.78863 | 9.80818 | 37201 ft | 458 kts | 4° |
| 2026-05-08 06:37 | 53.85210 | 9.81750 | 37207 ft | 458 kts | 4° |
| 2026-05-08 06:38 | 53.91532 | 9.82676 | 37199 ft | 458 kts | 4° |
| 2026-05-08 06:38 | 53.97887 | 9.83607 | 37196 ft | 458 kts | 4° |
| 2026-05-08 06:39 | 54.04244 | 9.84549 | 37196 ft | 459 kts | 4° |
| 2026-05-08 06:39 | 54.10604 | 9.85500 | 37209 ft | 459 kts | 4° |
| 2026-05-08 06:40 | 54.16973 | 9.86454 | 37216 ft | 459 kts | 4° |
| 2026-05-08 06:40 | 54.23342 | 9.87409 | 37209 ft | 459 kts | 4° |
| 2026-05-08 06:41 | 54.29667 | 9.88360 | 37211 ft | 459 kts | 4° |
| 2026-05-08 06:41 | 54.36043 | 9.89323 | 37215 ft | 459 kts | 4° |
| 2026-05-08 06:42 | 54.42409 | 9.90288 | 37219 ft | 459 kts | 4° |
| 2026-05-08 06:42 | 54.48783 | 9.91251 | 37215 ft | 459 kts | 4° |
| 2026-05-08 06:43 | 54.55157 | 9.92209 | 37220 ft | 460 kts | 4° |
| 2026-05-08 06:43 | 54.61529 | 9.93183 | 37232 ft | 460 kts | 4° |
| 2026-05-08 06:44 | 54.67870 | 9.94143 | 37226 ft | 460 kts | 4° |
| 2026-05-08 06:44 | 54.74242 | 9.95125 | 37234 ft | 460 kts | 5° |
| 2026-05-08 06:45 | 54.80614 | 9.96183 | 37229 ft | 460 kts | 8° |
| 2026-05-08 06:45 | 54.86858 | 9.98635 | 37224 ft | 460 kts | 13° |
| 2026-05-08 06:46 | 54.93089 | 10.01211 | 37234 ft | 460 kts | 13° |
| 2026-05-08 06:46 | 54.99325 | 10.03768 | 37230 ft | 460 kts | 13° |
| 2026-05-08 06:47 | 55.05562 | 10.06348 | 37226 ft | 461 kts | 13° |
| 2026-05-08 06:47 | 55.11803 | 10.08954 | 37228 ft | 461 kts | 13° |
| 2026-05-08 06:48 | 55.18036 | 10.11564 | 37240 ft | 461 kts | 13° |
| 2026-05-08 06:48 | 55.24233 | 10.14150 | 37247 ft | 461 kts | 13° |
| 2026-05-08 06:49 | 55.30477 | 10.16766 | 37253 ft | 461 kts | 13° |
| 2026-05-08 06:49 | 55.36707 | 10.19401 | 37261 ft | 461 kts | 14° |
| 2026-05-08 06:50 | 55.42945 | 10.22047 | 37255 ft | 461 kts | 14° |
| 2026-05-08 06:50 | 55.49178 | 10.24684 | 37254 ft | 460 kts | 14° |
| 2026-05-08 06:51 | 55.55400 | 10.27321 | 37257 ft | 460 kts | 14° |
| 2026-05-08 06:51 | 55.61621 | 10.29985 | 37254 ft | 460 kts | 14° |
| 2026-05-08 06:52 | 55.67838 | 10.32654 | 37247 ft | 460 kts | 14° |
| 2026-05-08 06:52 | 55.74063 | 10.35329 | 37250 ft | 460 kts | 14° |
| 2026-05-08 06:53 | 55.80248 | 10.37996 | 37251 ft | 461 kts | 14° |
| 2026-05-08 06:53 | 55.86479 | 10.40688 | 37257 ft | 461 kts | 14° |
| 2026-05-08 06:54 | 55.92711 | 10.43391 | 37256 ft | 461 kts | 14° |
| 2026-05-08 06:54 | 55.98947 | 10.46110 | 37257 ft | 461 kts | 14° |
| 2026-05-08 06:55 | 56.05181 | 10.48833 | 37258 ft | 461 kts | 14° |
| 2026-05-08 06:55 | 56.11417 | 10.51553 | 37263 ft | 461 kts | 14° |
| 2026-05-08 06:56 | 56.17622 | 10.54282 | 37267 ft | 461 kts | 14° |
| 2026-05-08 06:56 | 56.23853 | 10.57043 | 37266 ft | 461 kts | 14° |
| 2026-05-08 06:57 | 56.30083 | 10.59816 | 37266 ft | 461 kts | 14° |
| 2026-05-08 06:57 | 56.36313 | 10.62580 | 37259 ft | 461 kts | 14° |
| 2026-05-08 06:58 | 56.42545 | 10.65357 | 37260 ft | 461 kts | 14° |
| 2026-05-08 06:58 | 56.48766 | 10.68134 | 37268 ft | 461 kts | 14° |
| 2026-05-08 06:59 | 56.54954 | 10.70901 | 37268 ft | 461 kts | 14° |
| 2026-05-08 06:59 | 56.61181 | 10.73697 | 37272 ft | 461 kts | 14° |
| 2026-05-08 07:00 | 56.67242 | 10.76440 | 37276 ft | 461 kts | 14° |
| 2026-05-08 07:00 | 56.73451 | 10.79278 | 37282 ft | 461 kts | 14° |
| 2026-05-08 07:01 | 56.79674 | 10.82124 | 37276 ft | 461 kts | 14° |
| 2026-05-08 07:01 | 56.85897 | 10.84953 | 37278 ft | 461 kts | 14° |
| 2026-05-08 07:02 | 56.92040 | 10.87756 | 37285 ft | 461 kts | 14° |
| 2026-05-08 07:02 | 56.98261 | 10.90605 | 37276 ft | 460 kts | 14° |
| 2026-05-08 07:03 | 57.04476 | 10.93469 | 37278 ft | 460 kts | 14° |
| 2026-05-08 07:03 | 57.10687 | 10.96353 | 37271 ft | 460 kts | 14° |
| 2026-05-08 07:04 | 57.16898 | 10.99233 | 37272 ft | 460 kts | 14° |
| 2026-05-08 07:04 | 57.23103 | 11.02124 | 37274 ft | 460 kts | 14° |
| 2026-05-08 07:05 | 57.29267 | 11.05012 | 37265 ft | 460 kts | 14° |
| 2026-05-08 07:05 | 57.35476 | 11.07929 | 37267 ft | 460 kts | 14° |
| 2026-05-08 07:06 | 57.41684 | 11.10846 | 37273 ft | 461 kts | 14° |
| 2026-05-08 07:06 | 57.47899 | 11.13767 | 37277 ft | 461 kts | 14° |
| 2026-05-08 07:07 | 57.53911 | 11.16615 | 37266 ft | 461 kts | 14° |
| 2026-05-08 07:07 | 57.56512 | 11.17862 | 37268 ft | 461 kts | 14° |
| 2026-05-08 07:08 | 57.62721 | 11.20833 | 37279 ft | 461 kts | 14° |
| 2026-05-08 07:08 | 57.67767 | 11.23960 | 37288 ft | 460 kts | 23° |
| 2026-05-08 07:09 | 57.74610 | 11.29423 | 37269 ft | 460 kts | 23° |
| 2026-05-08 07:09 | 57.80507 | 11.34137 | 37269 ft | 461 kts | 23° |
| 2026-05-08 07:10 | 57.85446 | 11.38112 | 37275 ft | 461 kts | 23° |
| 2026-05-08 07:10 | 57.91302 | 11.42844 | 37275 ft | 461 kts | 23° |
| 2026-05-08 07:11 | 57.97197 | 11.47600 | 37277 ft | 461 kts | 23° |
| 2026-05-08 07:11 | 58.03095 | 11.52370 | 37274 ft | 461 kts | 23° |
| 2026-05-08 07:12 | 58.08994 | 11.57173 | 37272 ft | 461 kts | 23° |
| 2026-05-08 07:12 | 58.14954 | 11.61623 | 37273 ft | 460 kts | 14° |
| 2026-05-08 07:13 | 58.18099 | 11.62763 | 37134 ft | 461 kts | 5° |
| 2026-05-08 07:13 | 58.21293 | 11.62956 | 36868 ft | 459 kts | 355° |
| 2026-05-08 07:13 | 58.24412 | 11.62230 | 36608 ft | 458 kts | 349° |
| 2026-05-08 07:13 | 58.27558 | 11.61237 | 36357 ft | 458 kts | 349° |
| 2026-05-08 07:14 | 58.30699 | 11.60259 | 36249 ft | 458 kts | 349° |
| 2026-05-08 07:14 | 58.33849 | 11.59291 | 36282 ft | 459 kts | 350° |
| 2026-05-08 07:14 | 58.40160 | 11.57353 | 36284 ft | 459 kts | 350° |
| 2026-05-08 07:15 | 58.46474 | 11.55396 | 36279 ft | 460 kts | 349° |
| 2026-05-08 07:15 | 58.52786 | 11.53421 | 36286 ft | 459 kts | 349° |
| 2026-05-08 07:16 | 58.59095 | 11.51437 | 36249 ft | 460 kts | 349° |
| 2026-05-08 07:16 | 58.62253 | 11.50439 | 35993 ft | 460 kts | 349° |
| 2026-05-08 07:16 | 58.65408 | 11.49445 | 35743 ft | 460 kts | 349° |
| 2026-05-08 07:17 | 58.68566 | 11.48454 | 35488 ft | 460 kts | 349° |
| 2026-05-08 07:17 | 58.71727 | 11.47463 | 35245 ft | 460 kts | 349° |
| 2026-05-08 07:17 | 58.74851 | 11.46482 | 35002 ft | 461 kts | 349° |
| 2026-05-08 07:17 | 58.78021 | 11.45485 | 34759 ft | 461 kts | 349° |
| 2026-05-08 07:18 | 58.81200 | 11.44483 | 34079 ft | 465 kts | 349° |
| 2026-05-08 07:18 | 58.84407 | 11.43462 | 33097 ft | 469 kts | 349° |
| 2026-05-08 07:18 | 58.87633 | 11.42423 | 32160 ft | 472 kts | 349° |
| 2026-05-08 07:18 | 58.90851 | 11.41383 | 31597 ft | 466 kts | 349° |
| 2026-05-08 07:19 | 58.94038 | 11.40361 | 30960 ft | 462 kts | 349° |
| 2026-05-08 07:19 | 58.97199 | 11.39349 | 30332 ft | 458 kts | 349° |
| 2026-05-08 07:19 | 59.00326 | 11.38345 | 29656 ft | 453 kts | 349° |
| 2026-05-08 07:19 | 59.03416 | 11.37353 | 29068 ft | 446 kts | 349° |
| 2026-05-08 07:20 | 59.06469 | 11.36374 | 28470 ft | 441 kts | 349° |
| 2026-05-08 07:20 | 59.09478 | 11.35404 | 27887 ft | 436 kts | 349° |
| 2026-05-08 07:20 | 59.12441 | 11.34379 | 27561 ft | 425 kts | 347° |
| 2026-05-08 07:20 | 59.15287 | 11.33248 | 27424 ft | 411 kts | 348° |
| 2026-05-08 07:21 | 59.18089 | 11.32729 | 27283 ft | 399 kts | 358° |
| 2026-05-08 07:21 | 59.20821 | 11.33195 | 27019 ft | 392 kts | 10° |
| 2026-05-08 07:21 | 59.23399 | 11.34577 | 26443 ft | 388 kts | 17° |
| 2026-05-08 07:21 | 59.25963 | 11.36185 | 25768 ft | 386 kts | 17° |
| 2026-05-08 07:22 | 59.28496 | 11.37810 | 25260 ft | 380 kts | 17° |
| 2026-05-08 07:22 | 59.30999 | 11.39422 | 24763 ft | 377 kts | 17° |
| 2026-05-08 07:22 | 59.33490 | 11.41026 | 24268 ft | 377 kts | 17° |
| 2026-05-08 07:22 | 59.35983 | 11.42623 | 23760 ft | 377 kts | 17° |
| 2026-05-08 07:23 | 59.38474 | 11.44212 | 23313 ft | 374 kts | 17° |
| 2026-05-08 07:23 | 59.40934 | 11.45779 | 22888 ft | 370 kts | 17° |
| 2026-05-08 07:23 | 59.43394 | 11.47043 | 22542 ft | 362 kts | 5° |
| 2026-05-08 07:23 | 59.45884 | 11.47106 | 22154 ft | 356 kts | 356° |
| 2026-05-08 07:24 | 59.48353 | 11.46942 | 21735 ft | 354 kts | 356° |
| 2026-05-08 07:24 | 59.50803 | 11.46770 | 21325 ft | 351 kts | 356° |
| 2026-05-08 07:24 | 59.53226 | 11.46597 | 20805 ft | 347 kts | 356° |
| 2026-05-08 07:24 | 59.55629 | 11.46423 | 20272 ft | 344 kts | 356° |
| 2026-05-08 07:25 | 59.58004 | 11.46254 | 19761 ft | 340 kts | 356° |
| 2026-05-08 07:25 | 59.60358 | 11.46092 | 19267 ft | 337 kts | 356° |
| 2026-05-08 07:25 | 59.65031 | 11.45770 | 18514 ft | 334 kts | 356° |
| 2026-05-08 07:26 | 59.67352 | 11.45608 | 18109 ft | 332 kts | 356° |
| 2026-05-08 07:26 | 59.69657 | 11.45450 | 17704 ft | 331 kts | 356° |
| 2026-05-08 07:26 | 59.71960 | 11.45289 | 17298 ft | 330 kts | 356° |
| 2026-05-08 07:26 | 59.74254 | 11.45126 | 16903 ft | 330 kts | 356° |
| 2026-05-08 07:27 | 59.76546 | 11.44963 | 16507 ft | 329 kts | 356° |
| 2026-05-08 07:27 | 59.78830 | 11.44803 | 16134 ft | 328 kts | 356° |
| 2026-05-08 07:27 | 59.81103 | 11.44645 | 15768 ft | 326 kts | 356° |
| 2026-05-08 07:27 | 59.83365 | 11.44486 | 15415 ft | 325 kts | 356° |
| 2026-05-08 07:28 | 59.85625 | 11.44324 | 15064 ft | 324 kts | 356° |
| 2026-05-08 07:28 | 59.87878 | 11.44164 | 14718 ft | 323 kts | 356° |
| 2026-05-08 07:28 | 59.90118 | 11.44009 | 14375 ft | 322 kts | 356° |
| 2026-05-08 07:28 | 59.92351 | 11.43854 | 14030 ft | 320 kts | 356° |
| 2026-05-08 07:29 | 59.94576 | 11.43694 | 13645 ft | 319 kts | 356° |
| 2026-05-08 07:29 | 59.96794 | 11.43533 | 13275 ft | 318 kts | 356° |
| 2026-05-08 07:29 | 59.98998 | 11.43375 | 12897 ft | 317 kts | 356° |
| 2026-05-08 07:29 | 60.01191 | 11.43220 | 12536 ft | 312 kts | 356° |
| 2026-05-08 07:30 | 60.03334 | 11.43073 | 12191 ft | 304 kts | 356° |
| 2026-05-08 07:30 | 60.05424 | 11.42928 | 11855 ft | 297 kts | 356° |
| 2026-05-08 07:30 | 60.07467 | 11.42782 | 11519 ft | 290 kts | 356° |
| 2026-05-08 07:30 | 60.09466 | 11.42634 | 11188 ft | 285 kts | 356° |
| 2026-05-08 07:31 | 60.11426 | 11.42488 | 10860 ft | 279 kts | 356° |
| 2026-05-08 07:31 | 60.13351 | 11.42345 | 10531 ft | 274 kts | 356° |
| 2026-05-08 07:31 | 60.15245 | 11.42206 | 10187 ft | 270 kts | 356° |
| 2026-05-08 07:31 | 60.17090 | 11.42072 | 9818 ft | 267 kts | 356° |
| 2026-05-08 07:32 | 60.18960 | 11.41943 | 9436 ft | 264 kts | 356° |
| 2026-05-08 07:32 | 60.20791 | 11.41815 | 9061 ft | 262 kts | 356° |
| 2026-05-08 07:32 | 60.22615 | 11.41684 | 8704 ft | 263 kts | 356° |
| 2026-05-08 07:32 | 60.24444 | 11.41549 | 8337 ft | 263 kts | 356° |
| 2026-05-08 07:33 | 60.26251 | 11.41414 | 7983 ft | 264 kts | 356° |
| 2026-05-08 07:33 | 60.28089 | 11.41282 | 7621 ft | 264 kts | 356° |
| 2026-05-08 07:33 | 60.29923 | 11.41150 | 7268 ft | 263 kts | 356° |
| 2026-05-08 07:33 | 60.31743 | 11.41020 | 6911 ft | 259 kts | 356° |
| 2026-05-08 07:34 | 60.33518 | 11.40895 | 6504 ft | 253 kts | 356° |
| 2026-05-08 07:34 | 60.35262 | 11.40772 | 6054 ft | 249 kts | 356° |
| 2026-05-08 07:34 | 60.37005 | 11.40647 | 5712 ft | 250 kts | 356° |
| 2026-05-08 07:34 | 60.38723 | 11.40331 | 5446 ft | 244 kts | 341° |
| 2026-05-08 07:35 | 60.40164 | 11.38708 | 5188 ft | 234 kts | 311° |
| 2026-05-08 07:35 | 60.41018 | 11.36048 | 5030 ft | 221 kts | 283° |
| 2026-05-08 07:35 | 60.41199 | 11.33043 | 4988 ft | 213 kts | 258° |
| 2026-05-08 07:35 | 60.40886 | 11.30212 | 4862 ft | 203 kts | 251° |
| 2026-05-08 07:36 | 60.40533 | 11.27485 | 4726 ft | 197 kts | 246° |
| 2026-05-08 07:36 | 60.39899 | 11.25149 | 4617 ft | 182 kts | 227° |
| 2026-05-08 07:36 | 60.38999 | 11.23537 | 4544 ft | 166 kts | 210° |
| 2026-05-08 07:36 | 60.37958 | 11.22628 | 4389 ft | 161 kts | 195° |
| 2026-05-08 07:37 | 60.36912 | 11.22018 | 4201 ft | 157 kts | 196° |
| 2026-05-08 07:37 | 60.35871 | 11.21410 | 4001 ft | 156 kts | 196° |
| 2026-05-08 07:37 | 60.34834 | 11.20805 | 3793 ft | 154 kts | 195° |
| 2026-05-08 07:37 | 60.33833 | 11.20219 | 3595 ft | 147 kts | 195° |
| 2026-05-08 07:38 | 60.32871 | 11.19659 | 3387 ft | 141 kts | 195° |
| 2026-05-08 07:38 | 60.31939 | 11.19115 | 3199 ft | 138 kts | 195° |
| 2026-05-08 07:38 | 60.31030 | 11.18585 | 3024 ft | 134 kts | 195° |
| 2026-05-08 07:38 | 60.30140 | 11.18066 | 2828 ft | 132 kts | 195° |
| 2026-05-08 07:39 | 60.29261 | 11.17554 | 2649 ft | 131 kts | 195° |
| 2026-05-08 07:39 | 60.28387 | 11.17046 | 2462 ft | 130 kts | 194° |
| 2026-05-08 07:39 | 60.27510 | 11.16537 | 2273 ft | 131 kts | 195° |
| 2026-05-08 07:39 | 60.26635 | 11.16029 | 2094 ft | 130 kts | 196° |
| 2026-05-08 07:40 | 60.25766 | 11.15524 | 1912 ft | 129 kts | 196° |
| 2026-05-08 07:40 | 60.24913 | 11.15029 | 1733 ft | 129 kts | 195° |
| 2026-05-08 07:40 | 60.24047 | 11.14526 | 1545 ft | 130 kts | 195° |
| 2026-05-08 07:40 | 60.23171 | 11.14028 | 1362 ft | 132 kts | 194° |
| 2026-05-08 07:41 | 60.22275 | 11.13505 | 1203 ft | 135 kts | 195° |
| 2026-05-08 07:41 | 60.21370 | 11.12978 | 1013 ft | 136 kts | 193° |
| 2026-05-08 07:41 | 60.20464 | 11.12454 | 813 ft | 136 kts | 194° |
| 2026-05-08 07:41 | 60.19574 | 11.11932 | 694 ft | 124 kts | 194° |
| 2026-05-08 07:42 | 60.18890 | 11.11539 | 684 ft | 73 kts | 196° |
| 2026-05-08 07:42 | 60.18614 | 11.11374 | 687 ft | 30 kts | 200° |
| 2026-05-08 07:42 | 60.18474 | 11.11218 | 687 ft | 19 kts | 220° |
| 2026-05-08 07:42 | 60.18437 | 11.11086 | 689 ft | 8 kts | 262° |
| 2026-05-08 07:43 | 60.18440 | 11.11020 | 691 ft | 4 kts | 284° |
| 2026-05-08 07:43 | 60.18448 | 11.10966 | 684 ft | 4 kts | 287° |
| 2026-05-08 07:43 | 60.18465 | 11.10855 | 687 ft | 9 kts | 287° |
| 2026-05-08 07:43 | 60.18503 | 11.10761 | 683 ft | 10 kts | 349° |
| 2026-05-08 07:44 | 60.18564 | 11.10787 | 687 ft | 7 kts | 15° |
| 2026-05-08 07:44 | 60.18601 | 11.10809 | 682 ft | 6 kts | 16° |
| 2026-05-08 07:44 | 60.18663 | 11.10845 | 689 ft | 13 kts | 16° |
| 2026-05-08 07:44 | 60.18759 | 11.10900 | 690 ft | 14 kts | 16° |
| 2026-05-08 07:45 | 60.18850 | 11.10952 | 685 ft | 13 kts | 16° |
| 2026-05-08 07:45 | 60.18929 | 11.10998 | 690 ft | 11 kts | 16° |
| 2026-05-08 07:45 | 60.18997 | 11.11038 | 691 ft | 9 kts | 16° |
| 2026-05-08 07:45 | 60.19061 | 11.11075 | 690 ft | 11 kts | 16° |
| 2026-05-08 07:46 | 60.19132 | 11.11111 | 691 ft | 10 kts | 4° |
| 2026-05-08 07:46 | 60.19177 | 11.11038 | 686 ft | 8 kts | 283° |
| 2026-05-08 07:46 | 60.19192 | 11.10930 | 684 ft | 8 kts | 286° |
| 2026-05-08 07:46 | 60.19212 | 11.10795 | 685 ft | 11 kts | 286° |
| 2026-05-08 07:47 | 60.19232 | 11.10648 | 689 ft | 10 kts | 286° |
| 2026-05-08 07:47 | 60.19251 | 11.10517 | 684 ft | 9 kts | 286° |
| 2026-05-08 07:47 | 60.19287 | 11.10488 | 690 ft | 5 kts | 14° |
| 2026-05-08 07:47 | 60.19308 | 11.10500 | 687 ft | 1 kts | 16° |
| 2026-05-08 07:48 | 60.19309 | 11.10501 | 687 ft | 0 kts | 16° |